createdAt,value
2022-10-11T00:01:13.672Z,63.75
2022-10-11T00:03:58.719Z,63.50
2022-10-11T00:06:44.000Z,63.65
2022-10-11T00:09:30.232Z,63.57
2022-10-11T00:12:15.458Z,63.57
2022-10-11T00:15:00.883Z,63.67
2022-10-11T00:17:46.196Z,63.61
2022-10-11T00:20:31.326Z,63.71
2022-10-11T00:23:17.294Z,63.45
2022-10-11T00:26:06.442Z,63.52
2022-10-11T00:28:52.960Z,63.68
2022-10-11T00:31:38.590Z,63.63
2022-10-11T00:34:24.379Z,63.77
2022-10-11T00:37:10.045Z,63.84
2022-10-11T00:39:55.251Z,63.71
2022-10-11T00:42:40.713Z,63.84
2022-10-11T00:45:26.268Z,63.84
2022-10-11T00:48:23.399Z,63.85
2022-10-11T00:51:43.617Z,63.78
2022-10-11T00:54:33.210Z,63.75
2022-10-11T00:57:22.401Z,64.07
2022-10-11T01:00:10.963Z,63.98
2022-10-11T01:02:56.862Z,63.97
2022-10-11T01:05:42.300Z,63.95
2022-10-11T01:08:27.920Z,63.92
2022-10-11T01:11:17.240Z,63.84
2022-10-11T01:14:36.431Z,64.00
2022-10-11T01:17:33.692Z,64.05
2022-10-11T01:20:30.874Z,64.07
2022-10-11T01:23:24.376Z,63.98
2022-10-11T01:26:18.827Z,64.11
2022-10-11T01:29:15.326Z,64.13
2022-10-11T01:32:21.787Z,63.97
2022-10-11T01:35:15.235Z,64.16
2022-10-11T01:38:07.258Z,64.12
2022-10-11T01:41:05.943Z,64.15
2022-10-11T01:44:00.315Z,64.21
2022-10-11T01:46:45.916Z,64.30
2022-10-11T01:49:31.331Z,64.25
2022-10-11T01:52:16.461Z,64.25
2022-10-11T01:55:14.065Z,64.24
2022-10-11T01:57:59.445Z,64.34
2022-10-11T02:01:10.851Z,64.26
2022-10-11T02:04:10.835Z,64.21
2022-10-11T02:07:15.836Z,64.31
2022-10-11T02:10:15.433Z,64.25
2022-10-11T02:13:07.958Z,64.29
2022-10-11T02:15:56.190Z,64.38
2022-10-11T02:18:47.064Z,64.24
2022-10-11T02:21:36.296Z,64.32
2022-10-11T02:24:27.655Z,64.29
2022-10-11T02:27:14.659Z,64.59
2022-10-11T02:30:02.772Z,64.46
2022-10-11T02:32:50.402Z,64.51
2022-10-11T02:35:42.057Z,64.43
2022-10-11T02:38:38.786Z,64.55
2022-10-11T02:41:38.605Z,64.60
2022-10-11T02:44:32.020Z,64.54
2022-10-11T02:47:17.709Z,64.53
2022-10-11T02:50:04.282Z,64.68
2022-10-11T02:52:49.562Z,64.70
2022-10-11T02:55:35.171Z,64.72
2022-10-11T02:58:21.963Z,64.96
2022-10-11T03:01:07.841Z,65.08
2022-10-11T03:03:52.913Z,64.97
2022-10-11T03:06:38.177Z,65.17
2022-10-11T03:09:23.450Z,65.35
2022-10-11T03:12:08.665Z,65.34
2022-10-11T03:14:54.674Z,65.18
2022-10-11T03:17:39.837Z,65.12
2022-10-11T03:20:25.263Z,65.28
2022-10-11T03:23:11.425Z,65.31
2022-10-11T03:25:57.064Z,65.43
2022-10-11T03:28:42.640Z,65.35
2022-10-11T03:31:27.866Z,64.74
2022-10-11T03:34:15.383Z,65.74
2022-10-11T03:37:00.789Z,65.62
2022-10-11T03:39:46.144Z,65.57
2022-10-11T03:42:31.609Z,65.55
2022-10-11T03:45:16.866Z,65.64
2022-10-11T03:48:02.419Z,65.83
2022-10-11T03:50:49.218Z,65.67
2022-10-11T03:53:34.731Z,65.72
2022-10-11T03:56:20.083Z,65.82
2022-10-11T03:59:05.316Z,65.68
2022-10-11T04:01:50.705Z,65.52
2022-10-11T04:04:36.039Z,65.70
2022-10-11T04:07:21.683Z,65.70
2022-10-11T04:10:08.223Z,65.64
2022-10-11T04:12:53.781Z,65.66
2022-10-11T04:15:39.490Z,65.93
2022-10-11T04:18:25.200Z,65.89
2022-10-11T04:21:10.452Z,65.88
2022-10-11T04:23:55.764Z,65.89
2022-10-11T04:26:41.049Z,66.35
2022-10-11T04:29:30.117Z,66.39
2022-10-11T04:32:17.877Z,67.04
2022-10-11T04:35:04.835Z,67.59
2022-10-11T04:37:50.599Z,68.39
2022-10-11T04:40:35.976Z,68.31
2022-10-11T04:43:21.804Z,68.24
2022-10-11T04:46:07.973Z,68.41
2022-10-11T04:48:54.099Z,69.32
2022-10-11T04:51:39.380Z,68.65
2022-10-11T04:54:24.667Z,68.81
2022-10-11T04:57:10.253Z,69.11
2022-10-11T04:59:56.086Z,68.73
2022-10-11T05:02:41.693Z,68.14
2022-10-11T05:05:26.888Z,68.55
2022-10-11T05:08:12.427Z,67.77
2022-10-11T05:11:04.118Z,67.78
2022-10-11T05:13:49.564Z,67.73
2022-10-11T05:16:34.742Z,67.60
2022-10-11T05:19:20.060Z,67.38
2022-10-11T05:22:05.341Z,67.45
2022-10-11T05:24:50.758Z,67.37
2022-10-11T05:27:35.914Z,67.32
2022-10-11T05:30:21.296Z,67.16
2022-10-11T05:33:06.647Z,67.05
2022-10-11T05:35:52.229Z,66.81
2022-10-11T05:38:38.659Z,66.78
2022-10-11T05:41:24.261Z,66.79
2022-10-11T05:44:09.491Z,66.88
2022-10-11T05:46:54.777Z,66.69
2022-10-11T05:49:40.215Z,66.91
2022-10-11T05:52:25.812Z,66.90
2022-10-11T05:55:11.292Z,66.74
2022-10-11T05:57:57.604Z,66.82
2022-10-11T06:00:42.831Z,66.71
2022-10-11T06:03:28.313Z,66.69
2022-10-11T06:06:13.889Z,66.79
2022-10-11T06:08:59.407Z,66.81
2022-10-11T06:11:45.547Z,66.64
2022-10-11T06:14:30.976Z,66.77
2022-10-11T06:17:16.294Z,66.70
2022-10-11T06:20:01.928Z,66.58
2022-10-11T06:22:47.463Z,66.62
2022-10-11T06:25:32.820Z,66.84
2022-10-11T06:28:18.055Z,66.95
2022-10-11T06:31:05.296Z,66.71
2022-10-11T06:33:51.108Z,66.69
2022-10-11T06:36:36.725Z,66.84
2022-10-11T06:39:22.061Z,66.78
2022-10-11T06:42:07.391Z,66.78
2022-10-11T06:44:52.923Z,66.74
2022-10-11T06:47:38.220Z,66.69
2022-10-11T06:50:47.205Z,66.81
2022-10-11T06:53:28.997Z,66.70
2022-10-11T06:56:14.335Z,66.86
2022-10-11T06:59:00.221Z,66.68
2022-10-11T07:01:45.551Z,66.76
2022-10-11T07:04:30.747Z,66.70
2022-10-11T07:07:15.979Z,66.87
2022-10-11T07:10:01.298Z,66.52
2022-10-11T07:12:46.655Z,66.73
2022-10-11T07:15:31.900Z,66.84
2022-10-11T07:18:17.177Z,66.89
2022-10-11T07:21:06.911Z,66.50
2022-10-11T07:23:52.696Z,66.82
2022-10-11T07:26:38.579Z,66.61
2022-10-11T07:29:24.817Z,66.69
2022-10-11T07:32:10.206Z,66.36
2022-10-11T07:34:56.608Z,66.75
2022-10-11T07:37:42.084Z,66.74
2022-10-11T07:40:27.080Z,66.64
2022-10-11T07:43:13.923Z,66.68
2022-10-11T07:46:04.445Z,66.73
2022-10-11T07:48:50.369Z,66.70
2022-10-11T07:51:35.566Z,66.48
2022-10-11T07:54:20.938Z,66.73
2022-10-11T07:57:06.039Z,66.66
2022-10-11T07:59:51.623Z,66.72
2022-10-11T08:02:36.845Z,66.55
2022-10-11T08:05:22.176Z,66.61
2022-10-11T08:08:07.526Z,66.61
2022-10-11T08:10:52.829Z,66.53
2022-10-11T08:13:38.407Z,66.30
2022-10-11T08:16:23.957Z,66.60
2022-10-11T08:19:10.552Z,66.66
2022-10-11T08:21:55.855Z,66.58
2022-10-11T08:24:41.071Z,66.44
2022-10-11T08:27:26.561Z,66.47
2022-10-11T08:30:12.611Z,66.47
2022-10-11T08:32:57.698Z,66.53
2022-10-11T08:35:43.052Z,66.35
2022-10-11T08:38:28.328Z,66.40
2022-10-11T08:41:22.632Z,66.51
2022-10-11T08:44:51.901Z,66.57
2022-10-11T08:47:45.182Z,66.36
2022-10-11T08:50:30.535Z,66.45
2022-10-11T08:53:28.746Z,66.51
2022-10-11T08:56:16.405Z,66.48
2022-10-11T08:59:15.471Z,66.40
2022-10-11T09:02:20.078Z,66.40
2022-10-11T09:05:06.337Z,66.36
2022-10-11T09:08:10.073Z,66.39
2022-10-11T09:11:04.494Z,66.54
2022-10-11T09:14:08.281Z,66.46
2022-10-11T09:17:04.571Z,66.41
2022-10-11T09:20:00.077Z,66.41
2022-10-11T09:23:04.912Z,66.44
2022-10-11T09:25:57.324Z,66.30
2022-10-11T09:29:01.181Z,66.39
2022-10-11T09:31:52.084Z,66.38
2022-10-11T09:34:38.113Z,66.24
2022-10-11T09:37:39.931Z,66.56
2022-10-11T09:40:35.354Z,66.16
2022-10-11T09:43:20.554Z,66.07
2022-10-11T09:46:20.648Z,66.46
2022-10-11T09:49:11.374Z,66.03
2022-10-11T09:52:00.232Z,66.29
2022-10-11T09:54:58.310Z,66.05
2022-10-11T09:57:54.578Z,66.06
2022-10-11T10:00:39.808Z,66.31
2022-10-11T10:03:36.472Z,66.30
2022-10-11T10:06:27.592Z,66.20
2022-10-11T10:09:30.231Z,66.46
2022-10-11T10:12:21.725Z,66.01
2022-10-11T10:15:23.424Z,66.09
2022-10-11T10:18:24.482Z,66.22
2022-10-11T10:21:14.703Z,66.29
2022-10-11T10:24:04.695Z,66.23
2022-10-11T10:27:07.046Z,66.13
2022-10-11T10:30:07.853Z,66.22
2022-10-11T10:33:11.609Z,66.22
2022-10-11T10:36:04.399Z,66.15
2022-10-11T10:38:56.427Z,66.09
2022-10-11T10:41:41.874Z,66.12
2022-10-11T10:44:27.153Z,66.17
2022-10-11T10:47:22.679Z,66.23
2022-10-11T10:50:44.389Z,66.29
2022-10-11T10:53:40.765Z,66.31
2022-10-11T10:56:50.200Z,66.37
2022-10-11T11:00:01.770Z,66.18
2022-10-11T11:02:53.233Z,66.36
2022-10-11T11:05:52.725Z,66.40
2022-10-11T11:08:53.130Z,66.34
2022-10-11T11:11:53.708Z,66.20
2022-10-11T11:14:55.378Z,66.33
2022-10-11T11:18:18.387Z,66.28
2022-10-11T11:21:13.084Z,66.16
2022-10-11T11:24:01.359Z,66.15
2022-10-11T11:27:10.200Z,66.36
2022-10-11T11:30:13.647Z,66.25
2022-10-11T11:33:18.980Z,66.24
2022-10-11T11:36:13.655Z,66.21
2022-10-11T11:39:02.742Z,66.23
2022-10-11T11:42:04.468Z,66.25
2022-10-11T11:44:51.716Z,66.05
2022-10-11T11:47:46.215Z,66.10
2022-10-11T11:50:43.800Z,66.08
2022-10-11T11:53:59.195Z,65.94
2022-10-11T11:56:44.715Z,66.14
2022-10-11T11:59:55.184Z,66.03
2022-10-11T12:02:51.616Z,66.23
2022-10-11T12:05:37.319Z,66.09
2022-10-11T12:08:30.932Z,66.09
2022-10-11T12:11:25.671Z,66.03
2022-10-11T12:14:16.403Z,66.00
2022-10-11T12:17:07.203Z,65.97
2022-10-11T12:20:09.648Z,63.91
2022-10-11T12:23:19.939Z,62.07
2022-10-11T12:26:27.370Z,65.26
2022-10-11T12:29:20.139Z,64.94
2022-10-11T12:32:06.549Z,64.48
2022-10-11T12:35:30.731Z,64.62
2022-10-11T12:38:22.127Z,64.28
2022-10-11T12:41:10.743Z,64.42
2022-10-11T12:44:24.121Z,64.10
2022-10-11T12:47:34.539Z,64.85
2022-10-11T12:50:40.436Z,64.76
2022-10-11T12:53:42.758Z,64.79
2022-10-11T12:56:49.833Z,64.97
2022-10-11T12:59:41.536Z,65.00
2022-10-11T13:02:35.932Z,65.13
2022-10-11T13:05:35.947Z,65.29
2022-10-11T13:08:31.454Z,65.38
2022-10-11T13:11:21.231Z,65.45
2022-10-11T13:14:11.933Z,65.57
2022-10-11T13:17:06.770Z,65.72
2022-10-11T13:20:00.818Z,65.62
2022-10-11T13:22:49.961Z,65.13
2022-10-11T13:25:38.769Z,65.49
2022-10-11T13:28:25.296Z,65.50
2022-10-11T13:31:11.024Z,65.69
2022-10-11T13:33:59.270Z,65.65
2022-10-11T13:36:44.608Z,65.66
2022-10-11T13:39:35.333Z,65.72
2022-10-11T13:42:28.099Z,65.92
2022-10-11T13:45:14.561Z,65.92
2022-10-11T13:47:59.786Z,66.13
2022-10-11T13:50:52.306Z,66.18
2022-10-11T13:53:37.755Z,66.29
2022-10-11T13:56:23.128Z,66.19
2022-10-11T13:59:17.802Z,66.69
2022-10-11T14:02:04.483Z,66.94
2022-10-11T14:04:50.138Z,67.10
2022-10-11T14:07:39.230Z,67.14
2022-10-11T14:10:24.733Z,67.29
2022-10-11T14:13:29.288Z,67.39
2022-10-11T14:16:20.758Z,67.33
2022-10-11T14:19:11.202Z,67.27
2022-10-11T14:21:56.825Z,67.38
2022-10-11T14:24:43.216Z,67.15
2022-10-11T14:27:28.892Z,67.31
2022-10-11T14:30:25.515Z,67.40
2022-10-11T14:33:12.154Z,67.28
2022-10-11T14:35:57.614Z,67.43
2022-10-11T14:38:43.017Z,67.29
2022-10-11T14:41:28.282Z,67.25
2022-10-11T14:44:14.646Z,67.54
2022-10-11T14:47:01.507Z,67.14
2022-10-11T14:49:46.885Z,66.85
2022-10-11T14:52:32.763Z,66.52
2022-10-11T14:55:18.253Z,66.87
2022-10-11T14:58:04.577Z,67.10
2022-10-11T15:00:50.084Z,66.92
2022-10-11T15:03:35.459Z,66.72
2022-10-11T15:06:24.321Z,66.75
2022-10-11T15:09:10.335Z,65.70
2022-10-11T15:11:56.552Z,66.00
2022-10-11T15:14:41.793Z,65.93
2022-10-11T15:17:26.936Z,66.17
2022-10-11T15:20:24.099Z,66.47
2022-10-11T15:23:10.468Z,66.45
2022-10-11T15:25:56.228Z,66.34
2022-10-11T15:28:42.265Z,66.38
2022-10-11T15:31:27.771Z,66.89
2022-10-11T15:34:13.252Z,66.38
2022-10-11T15:36:58.473Z,66.48
2022-10-11T15:39:43.960Z,66.60
2022-10-11T15:42:29.238Z,65.94
2022-10-11T15:45:16.261Z,66.19
2022-10-11T15:48:02.875Z,66.17
2022-10-11T15:50:50.124Z,66.38
2022-10-11T15:53:35.774Z,66.49
2022-10-11T15:56:21.269Z,66.33
2022-10-11T15:59:06.379Z,66.19
2022-10-11T16:01:52.519Z,66.04
2022-10-11T16:04:38.235Z,67.50
2022-10-11T16:07:23.528Z,67.48
2022-10-11T16:10:09.596Z,67.41
2022-10-11T16:12:56.012Z,66.77
2022-10-11T16:15:43.368Z,65.92
2022-10-11T16:18:34.881Z,66.52
2022-10-11T16:21:23.963Z,66.65
2022-10-11T16:24:09.497Z,66.75
2022-10-11T16:26:54.830Z,67.37
2022-10-11T16:29:40.223Z,67.95
2022-10-11T16:32:25.506Z,68.30
2022-10-11T16:35:12.997Z,68.25
2022-10-11T16:37:58.291Z,68.51
2022-10-11T16:40:43.816Z,68.47
2022-10-11T16:43:29.456Z,68.66
2022-10-11T16:46:14.902Z,68.59
2022-10-11T16:49:01.633Z,68.76
2022-10-11T16:51:47.144Z,68.54
2022-10-11T16:54:32.506Z,68.77
2022-10-11T16:57:19.974Z,68.24
2022-10-11T17:00:09.665Z,68.22
2022-10-11T17:02:55.271Z,68.20
2022-10-11T17:05:40.876Z,68.17
2022-10-11T17:08:26.912Z,68.42
2022-10-11T17:11:12.472Z,68.65
2022-10-11T17:14:00.624Z,68.36
2022-10-11T17:16:46.159Z,68.14
2022-10-11T17:19:32.594Z,67.74
2022-10-11T17:22:21.850Z,67.85
2022-10-11T17:25:08.179Z,67.42
2022-10-11T17:27:56.610Z,67.19
2022-10-11T17:30:43.896Z,67.54
2022-10-11T17:33:30.535Z,66.13
2022-10-11T17:36:23.964Z,64.87
2022-10-11T17:39:17.096Z,65.98
2022-10-11T17:42:07.401Z,65.90
2022-10-11T17:44:53.222Z,65.68
2022-10-11T17:47:39.109Z,65.39
2022-10-11T17:50:24.927Z,65.30
2022-10-11T17:53:10.579Z,65.23
2022-10-11T17:55:59.056Z,64.92
2022-10-11T17:58:45.568Z,64.80
2022-10-11T18:01:31.086Z,64.85
2022-10-11T18:04:19.338Z,64.78
2022-10-11T18:07:05.296Z,64.46
2022-10-11T18:09:50.918Z,64.45
2022-10-11T18:12:36.226Z,64.49
2022-10-11T18:15:22.025Z,64.36
2022-10-11T18:18:07.301Z,64.17
2022-10-11T18:20:53.452Z,64.07
2022-10-11T18:23:39.422Z,63.67
2022-10-11T18:26:30.157Z,63.82
2022-10-11T18:29:16.408Z,63.13
2022-10-11T18:32:02.148Z,62.59
2022-10-11T18:34:47.979Z,62.32
2022-10-11T18:37:34.023Z,62.83
2022-10-11T18:40:19.665Z,63.20
2022-10-11T18:43:05.546Z,63.54
2022-10-11T18:45:51.323Z,63.69
2022-10-11T18:48:40.959Z,63.66
2022-10-11T18:51:28.543Z,63.86
2022-10-11T18:54:18.510Z,63.62
2022-10-11T18:57:06.783Z,63.54
2022-10-11T18:59:53.229Z,63.69
2022-10-11T19:02:38.643Z,63.58
2022-10-11T19:05:23.947Z,63.67
2022-10-11T19:08:09.207Z,63.53
2022-10-11T19:10:54.511Z,63.66
2022-10-11T19:13:40.182Z,63.66
2022-10-11T19:16:29.427Z,63.70
2022-10-11T19:19:14.904Z,63.82
2022-10-11T19:22:02.133Z,63.93
2022-10-11T19:24:47.400Z,64.14
2022-10-11T19:27:32.803Z,64.22
2022-10-11T19:30:18.181Z,64.42
2022-10-11T19:33:04.781Z,64.37
2022-10-11T19:35:55.459Z,64.32
2022-10-11T19:38:44.562Z,64.52
2022-10-11T19:41:29.723Z,64.42
2022-10-11T19:44:16.016Z,64.30
2022-10-11T19:47:05.284Z,64.42
2022-10-11T19:49:50.541Z,64.53
2022-10-11T19:52:35.864Z,64.47
2022-10-11T19:55:21.140Z,64.46
2022-10-11T19:58:08.387Z,64.46
2022-10-11T20:01:01.965Z,64.57
2022-10-11T20:03:53.013Z,64.64
2022-10-11T20:06:41.397Z,64.57
2022-10-11T20:09:30.860Z,64.67
2022-10-11T20:12:16.586Z,64.53
2022-10-11T20:15:01.843Z,64.80
2022-10-11T20:17:50.228Z,64.57
2022-10-11T20:20:35.924Z,64.56
2022-10-11T20:23:27.250Z,64.66
2022-10-11T20:26:16.308Z,64.76
2022-10-11T20:29:01.694Z,64.71
2022-10-11T20:31:46.949Z,64.80
2022-10-11T20:34:32.243Z,64.59
2022-10-11T20:37:17.657Z,64.64
2022-10-11T20:40:06.448Z,64.76
2022-10-11T20:42:52.175Z,64.72
2022-10-11T20:45:37.448Z,64.82
2022-10-11T20:48:22.712Z,64.91
2022-10-11T20:51:10.254Z,64.78
2022-10-11T20:53:56.535Z,64.92
2022-10-11T20:56:41.984Z,65.04
2022-10-11T20:59:27.528Z,65.06
2022-10-11T21:02:18.030Z,64.90
2022-10-11T21:05:05.494Z,65.08
2022-10-11T21:07:51.013Z,65.03
2022-10-11T21:10:36.436Z,64.89
2022-10-11T21:13:22.674Z,65.09
2022-10-11T21:16:14.588Z,65.04
2022-10-11T21:19:01.307Z,65.04
2022-10-11T21:21:52.519Z,65.22
2022-10-11T21:24:38.985Z,65.17
2022-10-11T21:27:27.087Z,65.25
2022-10-11T21:30:12.614Z,64.96
2022-10-11T21:32:57.983Z,65.18
2022-10-11T21:35:43.550Z,65.37
2022-10-11T21:38:29.179Z,65.32
2022-10-11T21:41:17.580Z,65.36
2022-10-11T21:44:03.079Z,65.30
2022-10-11T21:47:06.165Z,65.31
2022-10-11T21:49:52.240Z,65.34
2022-10-11T21:52:37.764Z,65.28
2022-10-11T21:55:23.241Z,65.40
2022-10-11T21:58:08.563Z,65.28
2022-10-11T22:00:53.913Z,65.28
2022-10-11T22:03:39.164Z,65.32
2022-10-11T22:06:24.244Z,65.38
2022-10-11T22:09:10.319Z,65.35
2022-10-11T22:11:56.793Z,65.47
2022-10-11T22:14:42.083Z,65.41
2022-10-11T22:17:27.310Z,65.48
2022-10-11T22:20:12.522Z,65.51
2022-10-11T22:22:57.731Z,65.40
2022-10-11T22:25:42.923Z,65.32
2022-10-11T22:28:28.210Z,65.49
2022-10-11T22:31:14.931Z,65.49
2022-10-11T22:34:01.276Z,65.40
2022-10-11T22:36:47.603Z,65.40
2022-10-11T22:39:33.018Z,65.42
2022-10-11T22:42:18.263Z,65.45
2022-10-11T22:45:04.323Z,65.45
2022-10-11T22:47:49.772Z,65.43
2022-10-11T22:50:35.089Z,65.36
2022-10-11T22:53:20.604Z,65.48
2022-10-11T22:56:06.682Z,65.43
2022-10-11T22:58:52.000Z,65.62
2022-10-11T23:01:37.331Z,65.42
2022-10-11T23:04:22.654Z,65.41
2022-10-11T23:07:07.867Z,65.49
2022-10-11T23:09:53.176Z,65.53
2022-10-11T23:12:38.755Z,65.46
2022-10-11T23:15:24.302Z,65.44
2022-10-11T23:18:10.038Z,65.53
2022-10-11T23:20:55.352Z,65.64
2022-10-11T23:23:40.833Z,65.47
2022-10-11T23:26:26.120Z,65.43
2022-10-11T23:29:11.320Z,65.41
2022-10-11T23:31:56.713Z,65.40
2022-10-11T23:34:42.067Z,65.42
2022-10-11T23:37:27.294Z,65.44
2022-10-11T23:40:12.675Z,65.55
2022-10-11T23:42:58.050Z,65.56
2022-10-11T23:45:45.210Z,65.50
2022-10-11T23:48:30.711Z,65.64
2022-10-11T23:51:16.208Z,65.62
2022-10-11T23:54:01.339Z,65.65
2022-10-11T23:56:46.630Z,65.54
2022-10-11T23:59:31.884Z,65.49
